CES5466 ZSCN-ZSPD
Flight info
| Callsign | CES5466 |
|---|---|
| Flight time | N/A |
| Altitude | 26600 |
| Route | LAPEN W105 XSH W50 HFE R343 EKIMU |
| Aircraft | A320/M-SDE3FGHIRWY/LB1 |
Departure
| Time | 2026-04-12 06:49 |
|---|---|
| Airport | Nanchang Changbei International Airport (ZSCN) |
Arrival
| Time | N/A |
|---|---|
| Airport | Shanghai Pudong International Airport (ZSPD) |
| Time | Latitude | Longitude | Altitude | Speed | Heading |
|---|---|---|---|---|---|
| 2026-04-12 06:16 | 28.86461 | 115.90981 | 152 ft | 0 kts | 86° |
| 2026-04-12 06:35 | 28.86461 | 115.90979 | 152 ft | 1 kts | 86° |
| 2026-04-12 06:36 | 28.86460 | 115.90962 | 152 ft | 2 kts | 86° |
| 2026-04-12 06:36 | 28.86459 | 115.90945 | 152 ft | 2 kts | 86° |
| 2026-04-12 06:36 | 28.86458 | 115.90927 | 152 ft | 2 kts | 86° |
| 2026-04-12 06:36 | 28.86457 | 115.90913 | 152 ft | 0 kts | 86° |
| 2026-04-12 06:37 | 28.86455 | 115.90899 | 152 ft | 2 kts | 64° |
| 2026-04-12 06:37 | 28.86447 | 115.90886 | 152 ft | 2 kts | 41° |
| 2026-04-12 06:37 | 28.86435 | 115.90877 | 152 ft | 2 kts | 17° |
| 2026-04-12 06:37 | 28.86424 | 115.90874 | 152 ft | 0 kts | 358° |
| 2026-04-12 06:38 | 28.86417 | 115.90875 | 152 ft | 0 kts | 355° |
| 2026-04-12 06:40 | 28.86423 | 115.90875 | 152 ft | 1 kts | 355° |
| 2026-04-12 06:40 | 28.86443 | 115.90874 | 152 ft | 3 kts | 356° |
| 2026-04-12 06:41 | 28.86478 | 115.90871 | 152 ft | 6 kts | 358° |
| 2026-04-12 06:41 | 28.86527 | 115.90868 | 152 ft | 8 kts | 356° |
| 2026-04-12 06:41 | 28.86586 | 115.90865 | 152 ft | 9 kts | 357° |
| 2026-04-12 06:41 | 28.86636 | 115.90856 | 152 ft | 7 kts | 338° |
| 2026-04-12 06:42 | 28.86672 | 115.90806 | 152 ft | 9 kts | 293° |
| 2026-04-12 06:42 | 28.86701 | 115.90730 | 152 ft | 11 kts | 292° |
| 2026-04-12 06:42 | 28.86735 | 115.90639 | 152 ft | 12 kts | 302° |
| 2026-04-12 06:42 | 28.86819 | 115.90629 | 152 ft | 14 kts | 22° |
| 2026-04-12 06:43 | 28.86911 | 115.90672 | 152 ft | 11 kts | 23° |
| 2026-04-12 06:43 | 28.86946 | 115.90662 | 152 ft | 3 kts | 283° |
| 2026-04-12 06:43 | 28.86922 | 115.90642 | 152 ft | 6 kts | 178° |
| 2026-04-12 06:43 | 28.86873 | 115.90649 | 152 ft | 8 kts | 181° |
| 2026-04-12 06:44 | 28.86775 | 115.90609 | 152 ft | 10 kts | 203° |
| 2026-04-12 06:44 | 28.86589 | 115.90517 | 152 ft | 12 kts | 203° |
| 2026-04-12 06:44 | 28.86507 | 115.90477 | 152 ft | 13 kts | 202° |
| 2026-04-12 06:44 | 28.86418 | 115.90434 | 152 ft | 15 kts | 203° |
| 2026-04-12 06:45 | 28.86321 | 115.90387 | 152 ft | 16 kts | 204° |
| 2026-04-12 06:45 | 28.86216 | 115.90340 | 152 ft | 17 kts | 202° |
| 2026-04-12 06:45 | 28.86101 | 115.90284 | 152 ft | 18 kts | 204° |
| 2026-04-12 06:45 | 28.85983 | 115.90225 | 152 ft | 19 kts | 203° |
| 2026-04-12 06:46 | 28.85859 | 115.90164 | 152 ft | 19 kts | 204° |
| 2026-04-12 06:46 | 28.85731 | 115.90102 | 152 ft | 20 kts | 203° |
| 2026-04-12 06:46 | 28.85600 | 115.90039 | 152 ft | 19 kts | 203° |
| 2026-04-12 06:46 | 28.85484 | 115.89983 | 152 ft | 16 kts | 203° |
| 2026-04-12 06:47 | 28.85388 | 115.89936 | 152 ft | 15 kts | 203° |
| 2026-04-12 06:47 | 28.85284 | 115.89885 | 152 ft | 16 kts | 204° |
| 2026-04-12 06:47 | 28.85174 | 115.89831 | 152 ft | 17 kts | 202° |
| 2026-04-12 06:47 | 28.85126 | 115.89793 | 152 ft | 11 kts | 248° |
| 2026-04-12 06:48 | 28.85153 | 115.89687 | 152 ft | 3 kts | 292° |
| 2026-04-12 06:48 | 28.85165 | 115.89659 | 152 ft | 4 kts | 306° |
| 2026-04-12 06:48 | 28.85194 | 115.89645 | 152 ft | 5 kts | 359° |
| 2026-04-12 06:48 | 28.85234 | 115.89655 | 152 ft | 6 kts | 19° |
| 2026-04-12 06:49 | 28.85401 | 115.89733 | 152 ft | 59 kts | 23° |
| 2026-04-12 06:49 | 28.85991 | 115.90018 | 152 ft | 124 kts | 23° |
| 2026-04-12 06:49 | 28.86952 | 115.90482 | 236 ft | 168 kts | 22° |
| 2026-04-12 06:49 | 28.87995 | 115.90987 | 801 ft | 169 kts | 23° |
| 2026-04-12 06:50 | 28.89060 | 115.91508 | 1483 ft | 170 kts | 23° |
| 2026-04-12 06:50 | 28.90150 | 115.92042 | 2096 ft | 175 kts | 22° |
| 2026-04-12 06:50 | 28.91320 | 115.92619 | 2419 ft | 192 kts | 22° |
| 2026-04-12 06:50 | 28.92600 | 115.93249 | 2730 ft | 211 kts | 22° |
| 2026-04-12 06:51 | 28.94004 | 115.93938 | 3047 ft | 232 kts | 22° |
| 2026-04-12 06:51 | 28.95565 | 115.94694 | 3090 ft | 258 kts | 22° |
| 2026-04-12 06:51 | 28.97213 | 115.95486 | 3068 ft | 263 kts | 22° |
| 2026-04-12 06:51 | 28.98919 | 115.96310 | 3285 ft | 271 kts | 22° |
| 2026-04-12 06:52 | 29.00637 | 115.97152 | 4159 ft | 271 kts | 22° |
| 2026-04-12 06:52 | 29.02359 | 115.97997 | 5003 ft | 273 kts | 21° |
| 2026-04-12 06:52 | 29.04096 | 115.98840 | 5750 ft | 278 kts | 20° |
| 2026-04-12 06:52 | 29.05876 | 115.99706 | 6522 ft | 283 kts | 20° |
| 2026-04-12 06:53 | 29.07690 | 116.00587 | 7337 ft | 286 kts | 20° |
| 2026-04-12 06:53 | 29.09498 | 116.01467 | 8140 ft | 289 kts | 20° |
| 2026-04-12 06:53 | 29.10352 | 116.01883 | 8523 ft | 290 kts | 20° |
| 2026-04-12 06:53 | 29.12228 | 116.02799 | 9356 ft | 293 kts | 20° |
| 2026-04-12 06:54 | 29.14113 | 116.03725 | 10136 ft | 296 kts | 19° |
| 2026-04-12 06:54 | 29.16030 | 116.04652 | 10711 ft | 306 kts | 15° |
| 2026-04-12 06:54 | 29.18125 | 116.05115 | 11033 ft | 316 kts | 355° |
| 2026-04-12 06:54 | 29.20298 | 116.04681 | 11343 ft | 324 kts | 334° |
| 2026-04-12 06:55 | 29.22234 | 116.03325 | 11641 ft | 333 kts | 314° |
| 2026-04-12 06:55 | 29.23624 | 116.01192 | 12087 ft | 337 kts | 294° |
| 2026-04-12 06:55 | 29.24546 | 115.98792 | 12824 ft | 337 kts | 291° |
| 2026-04-12 06:55 | 29.25455 | 115.96313 | 13453 ft | 341 kts | 291° |
| 2026-04-12 06:56 | 29.26376 | 115.93806 | 13932 ft | 348 kts | 291° |
| 2026-04-12 06:56 | 29.27333 | 115.91225 | 14544 ft | 351 kts | 291° |
| 2026-04-12 06:56 | 29.28277 | 115.88689 | 15149 ft | 353 kts | 291° |
| 2026-04-12 06:56 | 29.29242 | 115.86104 | 15730 ft | 356 kts | 290° |
| 2026-04-12 06:57 | 29.30210 | 115.83510 | 16287 ft | 358 kts | 290° |
| 2026-04-12 06:57 | 29.31203 | 115.80865 | 16833 ft | 361 kts | 290° |
| 2026-04-12 06:57 | 29.32211 | 115.78303 | 17342 ft | 366 kts | 295° |
| 2026-04-12 06:57 | 29.33748 | 115.75935 | 17824 ft | 377 kts | 310° |
| 2026-04-12 06:58 | 29.35862 | 115.74129 | 18322 ft | 389 kts | 326° |
| 2026-04-12 06:58 | 29.38359 | 115.72894 | 18816 ft | 397 kts | 333° |
| 2026-04-12 06:58 | 29.40904 | 115.71798 | 19247 ft | 401 kts | 333° |
| 2026-04-12 06:58 | 29.43529 | 115.70686 | 19662 ft | 404 kts | 333° |
| 2026-04-12 06:59 | 29.46168 | 115.69554 | 20029 ft | 409 kts | 333° |
| 2026-04-12 06:59 | 29.48849 | 115.68391 | 20216 ft | 418 kts | 333° |
| 2026-04-12 06:59 | 29.51539 | 115.67217 | 20543 ft | 422 kts | 332° |
| 2026-04-12 07:00 | 29.57019 | 115.64819 | 21302 ft | 427 kts | 332° |
| 2026-04-12 07:00 | 29.59798 | 115.63601 | 21664 ft | 430 kts | 332° |
| 2026-04-12 07:00 | 29.62569 | 115.62389 | 22014 ft | 433 kts | 332° |
| 2026-04-12 07:00 | 29.65410 | 115.61148 | 22353 ft | 436 kts | 332° |
| 2026-04-12 07:01 | 29.68229 | 115.59914 | 22673 ft | 439 kts | 332° |
| 2026-04-12 07:01 | 29.71041 | 115.58682 | 22977 ft | 442 kts | 332° |
| 2026-04-12 07:01 | 29.73923 | 115.57419 | 23286 ft | 445 kts | 332° |
| 2026-04-12 07:01 | 29.76800 | 115.56156 | 23593 ft | 447 kts | 332° |
| 2026-04-12 07:02 | 29.79711 | 115.54879 | 23890 ft | 450 kts | 332° |
| 2026-04-12 07:02 | 29.82574 | 115.53624 | 24228 ft | 451 kts | 332° |
| 2026-04-12 07:02 | 29.85456 | 115.52363 | 24664 ft | 450 kts | 331° |
| 2026-04-12 07:02 | 29.88348 | 115.51097 | 25115 ft | 449 kts | 331° |
| 2026-04-12 07:03 | 29.91253 | 115.49822 | 25471 ft | 449 kts | 330° |
| 2026-04-12 07:03 | 29.94163 | 115.48538 | 25787 ft | 451 kts | 330° |
| 2026-04-12 07:03 | 29.97063 | 115.47259 | 26099 ft | 452 kts | 330° |
| 2026-04-12 07:03 | 30.00001 | 115.45963 | 26415 ft | 453 kts | 330° |
| 2026-04-12 07:04 | 30.02947 | 115.44659 | 26488 ft | 453 kts | 330° |
| 2026-04-12 07:04 | 30.05865 | 115.43369 | 26489 ft | 453 kts | 330° |
| 2026-04-12 07:04 | 30.08777 | 115.42082 | 26490 ft | 453 kts | 330° |
| 2026-04-12 07:04 | 30.10237 | 115.41436 | 26489 ft | 453 kts | 330° |